createdAt,value
2022-10-01T00:00:17.974Z,0.00
2022-10-01T00:01:21.814Z,0.25
2022-10-01T00:02:25.641Z,0.00
2022-10-01T00:03:29.329Z,0.00
2022-10-01T00:04:33.056Z,0.00
2022-10-01T00:05:36.752Z,0.00
2022-10-01T00:06:40.442Z,0.00
2022-10-01T00:07:44.343Z,0.00
2022-10-01T00:08:48.153Z,0.25
2022-10-01T00:09:52.055Z,0.00
2022-10-01T00:10:55.840Z,0.00
2022-10-01T00:11:59.771Z,0.00
2022-10-01T00:13:03.500Z,0.50
2022-10-01T00:14:07.141Z,0.00
2022-10-01T00:15:13.343Z,0.00
2022-10-01T00:16:15.682Z,0.00
2022-10-01T00:17:19.434Z,0.00
2022-10-01T00:18:23.231Z,0.00
2022-10-01T00:19:27.028Z,0.00
2022-10-01T00:20:30.836Z,0.00
2022-10-01T00:21:35.040Z,0.25
2022-10-01T00:22:42.000Z,0.00
2022-10-01T00:23:46.125Z,0.00
2022-10-01T00:24:50.157Z,0.00
2022-10-01T00:25:54.016Z,0.50
2022-10-01T00:26:57.797Z,0.50
2022-10-01T00:28:01.983Z,0.00
2022-10-01T00:29:05.593Z,0.50
2022-10-01T00:30:09.507Z,0.00
2022-10-01T00:31:13.221Z,0.00
2022-10-01T00:32:17.184Z,0.25
2022-10-01T00:33:21.085Z,0.00
2022-10-01T00:34:25.197Z,0.00
2022-10-01T00:35:29.194Z,0.50
2022-10-01T00:36:33.010Z,0.50
2022-10-01T00:37:37.197Z,0.00
2022-10-01T00:38:41.104Z,0.00
2022-10-01T00:39:44.993Z,0.00
2022-10-01T00:40:48.894Z,0.00
2022-10-01T00:41:52.690Z,0.00
2022-10-01T00:42:56.498Z,0.00
2022-10-01T00:44:00.501Z,1.00
2022-10-01T00:45:04.184Z,1.00
2022-10-01T00:46:07.953Z,0.00
2022-10-01T00:47:11.876Z,0.00
2022-10-01T00:48:15.875Z,0.50
2022-10-01T00:49:19.578Z,0.50
2022-10-01T00:50:23.467Z,0.25
2022-10-01T00:51:27.166Z,0.00
2022-10-01T00:52:30.855Z,0.00
2022-10-01T00:53:34.658Z,0.00
2022-10-01T00:54:38.443Z,0.00
2022-10-01T00:55:42.343Z,0.00
2022-10-01T00:56:46.149Z,0.25
2022-10-01T00:57:49.957Z,1.00
2022-10-01T00:58:53.633Z,0.25
2022-10-01T00:59:58.881Z,0.00
2022-10-01T01:01:03.002Z,0.00
2022-10-01T01:02:07.284Z,0.00
2022-10-01T01:03:11.482Z,1.00
2022-10-01T01:04:15.563Z,1.00
2022-10-01T01:05:19.974Z,0.25
2022-10-01T01:06:24.076Z,0.00
2022-10-01T01:07:28.282Z,0.25
2022-10-01T01:08:32.591Z,0.50
2022-10-01T01:09:36.805Z,0.50
2022-10-01T01:10:40.778Z,0.50
2022-10-01T01:11:44.799Z,1.00
2022-10-01T01:12:48.799Z,1.00
2022-10-01T01:13:52.925Z,1.00
2022-10-01T01:14:56.761Z,1.67
2022-10-01T01:16:00.844Z,0.50
2022-10-01T01:17:04.711Z,0.50
2022-10-01T01:18:08.699Z,1.00
2022-10-01T01:19:12.907Z,0.50
2022-10-01T01:20:16.910Z,0.00
2022-10-01T01:21:21.022Z,0.00
2022-10-01T01:22:25.217Z,0.00
2022-10-01T01:23:29.238Z,0.00
2022-10-01T01:24:33.732Z,1.00
2022-10-01T01:25:37.710Z,0.00
2022-10-01T01:26:41.818Z,0.50
2022-10-01T01:27:45.894Z,1.25
2022-10-01T01:28:49.943Z,0.50
2022-10-01T01:29:53.942Z,0.00
2022-10-01T01:30:58.006Z,0.00
2022-10-01T01:32:02.519Z,0.00
2022-10-01T01:33:06.562Z,0.50
2022-10-01T01:34:10.765Z,1.00
2022-10-01T01:35:14.686Z,1.00
2022-10-01T01:36:18.765Z,1.00
2022-10-01T01:37:22.872Z,0.00
2022-10-01T01:38:26.977Z,0.50
2022-10-01T01:39:31.183Z,1.00
2022-10-01T01:40:35.152Z,0.50
2022-10-01T01:41:39.286Z,0.50
2022-10-01T01:42:43.261Z,0.00
2022-10-01T01:43:47.288Z,0.00
2022-10-01T01:44:51.557Z,0.00
2022-10-01T01:45:55.386Z,0.00
2022-10-01T01:46:59.352Z,0.00
2022-10-01T01:48:03.496Z,0.00
2022-10-01T01:49:07.354Z,0.00
2022-10-01T01:50:11.400Z,0.00
2022-10-01T01:51:15.602Z,0.00
2022-10-01T01:52:19.706Z,0.00
2022-10-01T01:53:23.763Z,0.00
2022-10-01T01:54:27.812Z,0.00
2022-10-01T01:55:31.811Z,0.00
2022-10-01T01:56:35.911Z,0.00
2022-10-01T01:57:40.019Z,0.00
2022-10-01T01:58:44.124Z,0.00
2022-10-01T01:59:48.121Z,0.00
2022-10-01T02:00:52.121Z,0.00
2022-10-01T02:01:56.510Z,0.00
2022-10-01T02:03:00.718Z,0.00
2022-10-01T02:04:04.676Z,0.00
2022-10-01T02:05:08.741Z,0.00
2022-10-01T02:06:12.745Z,0.00
2022-10-01T02:07:17.072Z,0.00
2022-10-01T02:08:21.104Z,0.00
2022-10-01T02:09:25.057Z,0.50
2022-10-01T02:10:29.129Z,0.00
2022-10-01T02:11:33.385Z,0.00
2022-10-01T02:12:37.580Z,0.50
2022-10-01T02:13:42.696Z,0.50
2022-10-01T02:14:47.006Z,0.50
2022-10-01T02:15:51.233Z,1.00
2022-10-01T02:16:55.415Z,0.50
2022-10-01T02:17:59.664Z,0.50
2022-10-01T02:19:03.727Z,0.00
2022-10-01T02:20:08.036Z,0.00
2022-10-01T02:21:12.241Z,0.00
2022-10-01T02:22:16.542Z,0.50
2022-10-01T02:23:20.789Z,0.00
2022-10-01T02:24:24.678Z,1.00
2022-10-01T02:25:28.334Z,1.00
2022-10-01T02:26:32.357Z,0.50
2022-10-01T02:27:36.655Z,0.50
2022-10-01T02:28:40.871Z,0.00
2022-10-01T02:29:45.168Z,0.50
2022-10-01T02:30:49.405Z,0.00
2022-10-01T02:31:53.391Z,0.00
2022-10-01T02:32:57.476Z,0.50
2022-10-01T02:34:01.479Z,0.00
2022-10-01T02:35:05.750Z,0.50
2022-10-01T02:36:09.548Z,0.50
2022-10-01T02:37:13.594Z,0.50
2022-10-01T02:38:17.485Z,0.25
2022-10-01T02:39:21.694Z,0.00
2022-10-01T02:40:25.560Z,0.50
2022-10-01T02:41:29.488Z,0.00
2022-10-01T02:42:33.485Z,0.00
2022-10-01T02:43:41.949Z,1.00
2022-10-01T02:44:42.719Z,2.00
2022-10-01T02:45:46.948Z,0.50
2022-10-01T02:46:51.113Z,0.00
2022-10-01T02:47:54.948Z,0.00
2022-10-01T02:48:59.238Z,0.00
2022-10-01T02:50:03.293Z,0.75
2022-10-01T02:51:07.197Z,1.00
2022-10-01T02:52:11.342Z,1.00
2022-10-01T02:53:15.246Z,1.00
2022-10-01T02:54:19.149Z,0.50
2022-10-01T02:55:23.243Z,0.50
2022-10-01T02:56:27.347Z,1.00
2022-10-01T02:57:31.233Z,0.50
2022-10-01T02:58:35.139Z,0.00
2022-10-01T02:59:39.142Z,0.00
2022-10-01T03:00:43.453Z,0.00
2022-10-01T03:01:47.800Z,0.25
2022-10-01T03:02:52.026Z,0.00
2022-10-01T03:03:56.070Z,1.00
2022-10-01T03:05:00.169Z,1.25
2022-10-01T03:06:04.175Z,0.00
2022-10-01T03:07:08.174Z,0.00
2022-10-01T03:08:12.278Z,0.50
2022-10-01T03:09:16.279Z,1.00
2022-10-01T03:10:20.490Z,0.00
2022-10-01T03:11:24.585Z,0.50
2022-10-01T03:12:28.793Z,1.00
2022-10-01T03:13:33.105Z,0.50
2022-10-01T03:14:37.520Z,1.00
2022-10-01T03:15:41.779Z,0.50
2022-10-01T03:16:45.825Z,1.50
2022-10-01T03:17:50.265Z,0.75
2022-10-01T03:18:54.336Z,0.75
2022-10-01T03:19:58.330Z,1.00
2022-10-01T03:21:02.237Z,0.50
2022-10-01T03:22:06.245Z,0.00
2022-10-01T03:23:10.237Z,0.25
2022-10-01T03:24:14.237Z,0.50
2022-10-01T03:25:18.443Z,0.00
2022-10-01T03:26:22.653Z,0.00
2022-10-01T03:27:26.741Z,0.00
2022-10-01T03:28:30.940Z,0.00
2022-10-01T03:29:34.965Z,0.00
2022-10-01T03:30:39.176Z,0.00
2022-10-01T03:31:43.410Z,0.00
2022-10-01T03:32:47.576Z,0.00
2022-10-01T03:33:51.685Z,0.00
2022-10-01T03:34:55.682Z,0.00
2022-10-01T03:35:59.709Z,1.00
2022-10-01T03:37:03.887Z,0.50
2022-10-01T03:38:08.096Z,0.25
2022-10-01T03:39:12.094Z,0.50
2022-10-01T03:40:16.056Z,0.50
2022-10-01T03:41:19.995Z,0.00
2022-10-01T03:42:24.218Z,1.00
2022-10-01T03:43:28.267Z,1.00
2022-10-01T03:44:32.511Z,0.00
2022-10-01T03:45:36.496Z,0.50
2022-10-01T03:46:40.481Z,0.50
2022-10-01T03:47:44.721Z,1.00
2022-10-01T03:48:48.924Z,0.50
2022-10-01T03:49:52.924Z,0.00
2022-10-01T03:50:56.923Z,1.00
2022-10-01T03:52:01.135Z,0.25
2022-10-01T03:53:05.339Z,1.00
2022-10-01T03:54:09.443Z,1.50
2022-10-01T03:55:13.750Z,0.50
2022-10-01T03:56:17.775Z,1.00
2022-10-01T03:57:21.853Z,1.00
2022-10-01T03:58:25.705Z,0.00
2022-10-01T03:59:29.855Z,0.50
2022-10-01T04:00:33.967Z,1.50
2022-10-01T04:01:38.374Z,2.00
2022-10-01T04:02:42.627Z,0.50
2022-10-01T04:03:46.667Z,0.00
2022-10-01T04:04:50.995Z,0.00
2022-10-01T04:05:54.990Z,0.00
2022-10-01T04:06:59.197Z,0.00
2022-10-01T04:08:03.410Z,0.00
2022-10-01T04:09:07.433Z,0.50
2022-10-01T04:10:11.409Z,1.00
2022-10-01T04:11:15.522Z,1.25
2022-10-01T04:12:19.619Z,1.50
2022-10-01T04:13:23.607Z,0.50
2022-10-01T04:14:27.612Z,0.50
2022-10-01T04:15:31.816Z,2.50
2022-10-01T04:16:36.163Z,1.25
2022-10-01T04:17:42.691Z,1.00
2022-10-01T04:18:45.542Z,1.50
2022-10-01T04:19:49.559Z,1.00
2022-10-01T04:20:53.973Z,0.00
2022-10-01T04:21:57.991Z,2.00
2022-10-01T04:23:01.833Z,1.00
2022-10-01T04:24:05.981Z,0.50
2022-10-01T04:25:10.180Z,1.50
2022-10-01T04:26:14.181Z,0.00
2022-10-01T04:27:18.604Z,0.00
2022-10-01T04:28:22.938Z,0.00
2022-10-01T04:29:27.212Z,0.00
2022-10-01T04:30:31.416Z,0.00
2022-10-01T04:31:36.184Z,0.00
2022-10-01T04:32:40.853Z,0.25
2022-10-01T04:33:44.973Z,0.50
2022-10-01T04:34:49.158Z,1.00
2022-10-01T04:35:53.583Z,0.00
2022-10-01T04:36:57.473Z,0.25
2022-10-01T04:38:01.984Z,0.25
2022-10-01T04:39:06.089Z,0.50
2022-10-01T04:40:10.189Z,0.50
2022-10-01T04:41:14.206Z,0.25
2022-10-01T04:42:18.398Z,0.00
2022-10-01T04:43:22.705Z,0.00
2022-10-01T04:44:27.023Z,0.00
2022-10-01T04:45:31.218Z,0.00
2022-10-01T04:46:35.580Z,0.00
2022-10-01T04:47:39.836Z,1.00
2022-10-01T04:48:44.045Z,0.50
2022-10-01T04:49:48.243Z,0.00
2022-10-01T04:50:52.454Z,0.00
2022-10-01T04:51:56.660Z,0.00
2022-10-01T04:53:00.619Z,0.00
2022-10-01T04:54:04.863Z,0.00
2022-10-01T04:55:09.066Z,0.00
2022-10-01T04:56:13.278Z,0.50
2022-10-01T04:57:17.582Z,1.25
2022-10-01T04:58:21.807Z,1.00
2022-10-01T04:59:25.908Z,1.00
2022-10-01T05:00:30.414Z,1.00
2022-10-01T05:01:35.182Z,0.00
2022-10-01T05:02:39.535Z,0.00
2022-10-01T05:03:43.741Z,0.00
2022-10-01T05:04:48.050Z,0.00
2022-10-01T05:05:52.390Z,0.00
2022-10-01T05:06:56.212Z,0.00
2022-10-01T05:08:00.471Z,0.00
2022-10-01T05:09:04.584Z,0.00
2022-10-01T05:10:08.671Z,0.00
2022-10-01T05:12:31.211Z,1.00
2022-10-01T05:13:35.212Z,0.00
2022-10-01T05:14:39.214Z,0.00
2022-10-01T05:15:43.422Z,1.00
2022-10-01T05:16:47.546Z,0.00
2022-10-01T05:17:51.624Z,0.50
2022-10-01T05:18:55.742Z,1.00
2022-10-01T05:19:59.733Z,0.00
2022-10-01T05:21:03.697Z,0.50
2022-10-01T05:22:07.528Z,0.50
2022-10-01T05:23:11.445Z,0.00
2022-10-01T05:24:15.427Z,0.00
2022-10-01T05:25:19.539Z,0.00
2022-10-01T05:26:23.533Z,1.00
2022-10-01T05:27:27.743Z,0.00
2022-10-01T05:28:31.907Z,0.50
2022-10-01T05:29:36.250Z,0.00
2022-10-01T05:30:40.563Z,1.00
2022-10-01T05:31:44.819Z,1.00
2022-10-01T05:32:49.181Z,2.00
2022-10-01T05:33:53.265Z,1.50
2022-10-01T05:34:57.240Z,0.50
2022-10-01T05:36:01.388Z,0.50
2022-10-01T05:37:05.385Z,2.00
2022-10-01T05:38:09.389Z,1.00
2022-10-01T05:39:13.390Z,0.00
2022-10-01T05:40:17.449Z,0.25
2022-10-01T05:41:21.595Z,0.00
2022-10-01T05:42:25.802Z,0.00
2022-10-01T05:43:29.905Z,0.00
2022-10-01T05:44:34.419Z,1.00
2022-10-01T05:45:38.771Z,1.00
2022-10-01T05:46:43.019Z,1.00
2022-10-01T05:47:47.248Z,1.50
2022-10-01T05:48:51.548Z,0.00
2022-10-01T05:49:55.857Z,0.50
2022-10-01T05:50:59.856Z,0.00
2022-10-01T05:52:04.268Z,0.75
2022-10-01T05:53:08.262Z,0.75
2022-10-01T05:54:12.275Z,0.50
2022-10-01T05:55:16.283Z,1.00
2022-10-01T05:56:20.366Z,0.00
2022-10-01T05:57:24.477Z,0.00
2022-10-01T05:58:28.686Z,0.25
2022-10-01T05:59:32.993Z,0.50
2022-10-01T06:00:36.996Z,0.50
2022-10-01T06:01:41.105Z,0.00
2022-10-01T06:02:45.271Z,0.00
2022-10-01T06:03:49.406Z,0.00
2022-10-01T06:04:53.410Z,0.00
2022-10-01T06:05:57.512Z,0.00
2022-10-01T06:07:01.303Z,0.00
2022-10-01T06:08:05.175Z,0.00
2022-10-01T06:09:09.214Z,0.50
2022-10-01T06:10:13.307Z,0.50
2022-10-01T06:11:17.410Z,0.25
2022-10-01T06:12:21.430Z,0.00
2022-10-01T06:13:25.309Z,0.50
2022-10-01T06:14:29.415Z,0.75
2022-10-01T06:15:33.418Z,0.50
2022-10-01T06:16:37.600Z,0.50
2022-10-01T06:17:41.626Z,0.50
2022-10-01T06:18:45.623Z,0.50
2022-10-01T06:19:49.934Z,1.00
2022-10-01T06:20:53.989Z,0.50
2022-10-01T06:21:57.938Z,0.50
2022-10-01T06:23:01.948Z,0.75
2022-10-01T06:24:06.160Z,0.50
2022-10-01T06:25:10.148Z,0.00
2022-10-01T06:26:14.046Z,0.50
2022-10-01T06:27:18.143Z,0.50
2022-10-01T06:28:22.289Z,0.50
2022-10-01T06:29:26.265Z,0.50
2022-10-01T06:30:30.341Z,0.50
2022-10-01T06:31:34.917Z,1.50
2022-10-01T06:32:39.306Z,0.50
2022-10-01T06:33:43.480Z,0.00
2022-10-01T06:34:47.583Z,0.00
2022-10-01T06:35:51.667Z,0.00
2022-10-01T06:36:55.895Z,0.50
2022-10-01T06:38:00.204Z,0.50
2022-10-01T06:39:04.210Z,0.00
2022-10-01T06:40:08.271Z,0.00
2022-10-01T06:41:12.207Z,0.00
2022-10-01T06:42:16.209Z,0.50
2022-10-01T06:43:21.638Z,0.25
2022-10-01T06:44:25.739Z,0.50
2022-10-01T06:45:30.049Z,0.50
2022-10-01T06:46:34.499Z,0.50
2022-10-01T06:47:38.660Z,1.00
2022-10-01T06:48:42.880Z,0.50
2022-10-01T06:49:47.748Z,0.00
2022-10-01T06:50:52.414Z,0.00
2022-10-01T06:51:56.423Z,0.00
2022-10-01T06:53:00.376Z,0.00
2022-10-01T06:54:04.524Z,0.00
2022-10-01T06:55:10.318Z,0.50
2022-10-01T06:56:13.545Z,0.50
2022-10-01T06:57:17.547Z,0.00
2022-10-01T06:58:21.652Z,0.00
2022-10-01T06:59:25.777Z,1.00
2022-10-01T07:00:29.864Z,0.00
2022-10-01T07:01:34.328Z,0.00
2022-10-01T07:02:38.663Z,1.00
2022-10-01T07:03:42.779Z,0.75
2022-10-01T07:04:46.662Z,1.00
2022-10-01T07:05:51.910Z,1.00
2022-10-01T07:06:56.113Z,1.00
2022-10-01T07:08:00.392Z,0.50
2022-10-01T07:09:04.480Z,1.00
2022-10-01T07:10:08.548Z,0.00
2022-10-01T07:11:12.473Z,1.50
2022-10-01T07:12:16.839Z,0.75
2022-10-01T07:13:21.042Z,2.00
2022-10-01T07:14:25.249Z,1.75
2022-10-01T07:15:29.449Z,2.00
2022-10-01T07:16:33.565Z,1.00
2022-10-01T07:17:37.764Z,0.50
2022-10-01T07:18:41.977Z,0.50
2022-10-01T07:19:46.074Z,0.00
2022-10-01T07:20:50.278Z,0.25
2022-10-01T07:21:54.384Z,0.50
2022-10-01T07:22:58.487Z,1.00
2022-10-01T07:24:02.592Z,1.25
2022-10-01T07:25:06.694Z,0.50
2022-10-01T07:26:10.898Z,1.50
2022-10-01T07:27:14.555Z,1.25
2022-10-01T07:28:19.054Z,0.00
2022-10-01T07:29:23.621Z,1.50
2022-10-01T07:30:28.242Z,1.25
2022-10-01T07:31:33.312Z,1.00
2022-10-01T07:32:37.773Z,1.50
2022-10-01T07:33:41.987Z,2.00
2022-10-01T07:34:46.262Z,0.75
2022-10-01T07:35:51.616Z,0.75
2022-10-01T07:36:55.826Z,0.00
2022-10-01T07:38:00.130Z,0.50
2022-10-01T07:39:04.441Z,1.50
2022-10-01T07:40:08.542Z,1.50
2022-10-01T07:41:12.546Z,0.50
2022-10-01T07:42:16.953Z,1.00
2022-10-01T07:43:21.266Z,1.00
2022-10-01T07:44:25.676Z,0.50
2022-10-01T07:45:29.896Z,0.50
2022-10-01T07:46:34.819Z,0.00
2022-10-01T07:47:39.219Z,0.50
2022-10-01T07:48:43.521Z,1.25
2022-10-01T07:49:48.072Z,3.00
2022-10-01T07:50:52.563Z,3.00
2022-10-01T07:51:56.449Z,3.50
2022-10-01T07:53:00.508Z,5.00
2022-10-01T07:54:04.555Z,4.00
2022-10-01T07:55:08.969Z,2.00
2022-10-01T07:56:12.830Z,2.00
2022-10-01T07:57:16.761Z,1.50
2022-10-01T07:58:20.763Z,1.00
2022-10-01T07:59:24.863Z,2.00
2022-10-01T08:00:28.722Z,2.00
2022-10-01T08:01:32.808Z,1.00
2022-10-01T08:02:37.097Z,1.00
2022-10-01T08:03:40.968Z,2.00
2022-10-01T08:04:44.975Z,2.00
2022-10-01T08:05:49.031Z,2.00
2022-10-01T08:06:53.177Z,1.50
2022-10-01T08:07:57.199Z,1.50
2022-10-01T08:09:01.184Z,1.75
2022-10-01T08:10:05.184Z,1.75
2022-10-01T08:11:09.178Z,1.75
2022-10-01T08:12:13.388Z,2.25
2022-10-01T08:13:17.389Z,3.00
2022-10-01T08:14:21.497Z,1.00
2022-10-01T08:15:25.369Z,2.00
2022-10-01T08:16:29.331Z,1.75
2022-10-01T08:17:33.044Z,1.00
2022-10-01T08:18:37.092Z,0.50
2022-10-01T08:19:41.394Z,0.00
2022-10-01T08:20:45.703Z,1.00
2022-10-01T08:21:49.910Z,1.00
2022-10-01T08:22:54.115Z,1.00
2022-10-01T08:23:58.353Z,1.00
2022-10-01T08:25:02.322Z,0.00
2022-10-01T08:26:06.630Z,0.50
2022-10-01T08:27:10.631Z,1.00
2022-10-01T08:28:14.822Z,1.00
2022-10-01T08:29:18.939Z,0.00
2022-10-01T08:30:23.351Z,1.00
2022-10-01T08:31:27.701Z,1.50
2022-10-01T08:32:31.727Z,1.00
2022-10-01T08:33:35.866Z,0.50
2022-10-01T08:34:40.119Z,1.00
2022-10-01T08:35:44.379Z,1.50
2022-10-01T08:36:48.715Z,2.50
2022-10-01T08:37:53.006Z,4.75
2022-10-01T08:38:57.717Z,4.00
2022-10-01T08:40:02.131Z,2.50
2022-10-01T08:41:06.229Z,1.50
2022-10-01T08:42:10.432Z,1.00
2022-10-01T08:43:14.436Z,1.00
2022-10-01T08:44:18.261Z,0.50
2022-10-01T08:45:23.361Z,0.00
2022-10-01T08:46:27.567Z,0.25
2022-10-01T08:47:31.874Z,1.25
2022-10-01T08:48:36.283Z,1.25
2022-10-01T08:49:40.693Z,0.50
2022-10-01T08:50:44.903Z,0.50
2022-10-01T08:51:49.210Z,0.50
2022-10-01T08:52:53.617Z,0.25
2022-10-01T08:53:57.826Z,1.00
2022-10-01T08:55:02.849Z,1.50
2022-10-01T08:56:07.053Z,1.50
2022-10-01T08:57:11.056Z,1.75
2022-10-01T08:58:15.162Z,1.25
2022-10-01T08:59:20.571Z,2.00
2022-10-01T09:00:24.188Z,2.50
2022-10-01T09:01:28.534Z,2.00
2022-10-01T09:02:32.702Z,0.50
2022-10-01T09:03:36.826Z,0.00
2022-10-01T09:04:40.943Z,0.50
2022-10-01T09:05:44.826Z,0.00
2022-10-01T09:06:48.709Z,0.25
2022-10-01T09:07:52.713Z,2.00
2022-10-01T09:08:56.810Z,2.50
2022-10-01T09:10:00.806Z,1.25
2022-10-01T09:11:04.766Z,1.50
2022-10-01T09:12:08.917Z,0.75
2022-10-01T09:13:12.912Z,1.50
2022-10-01T09:14:17.027Z,1.00
2022-10-01T09:15:20.994Z,2.50
2022-10-01T09:16:24.764Z,2.50
2022-10-01T09:17:28.713Z,1.50
2022-10-01T09:18:32.598Z,1.50
2022-10-01T09:19:36.512Z,3.50
2022-10-01T09:20:40.777Z,2.50
2022-10-01T09:21:44.772Z,1.00
2022-10-01T09:22:49.049Z,1.00
2022-10-01T09:23:53.130Z,4.25
2022-10-01T09:24:57.442Z,4.50
2022-10-01T09:26:01.648Z,3.25
2022-10-01T09:27:05.643Z,2.25
2022-10-01T09:28:09.903Z,2.00
2022-10-01T09:29:13.969Z,2.50
2022-10-01T09:30:18.109Z,3.00
2022-10-01T09:31:22.096Z,3.00
2022-10-01T09:32:26.347Z,2.75
2022-10-01T09:33:30.486Z,2.50
2022-10-01T09:34:34.688Z,1.50
2022-10-01T09:35:38.987Z,1.00
2022-10-01T09:36:43.245Z,1.50
2022-10-01T09:37:47.403Z,2.50
2022-10-01T09:38:51.713Z,0.50
2022-10-01T09:39:55.916Z,1.00
2022-10-01T09:41:00.170Z,1.50
2022-10-01T09:42:04.533Z,0.25
2022-10-01T09:43:08.602Z,0.00
2022-10-01T09:44:15.653Z,1.25
2022-10-01T09:45:17.976Z,1.00
2022-10-01T09:46:21.999Z,1.00
2022-10-01T09:47:26.183Z,0.75
2022-10-01T09:48:30.380Z,0.50
2022-10-01T09:49:34.588Z,0.50
2022-10-01T09:50:38.798Z,0.25
2022-10-01T09:51:44.029Z,0.00
2022-10-01T09:52:49.254Z,3.50
2022-10-01T09:53:53.357Z,6.50
2022-10-01T09:54:57.765Z,7.00
2022-10-01T09:56:02.220Z,7.25
2022-10-01T09:57:06.182Z,8.00
2022-10-01T09:58:10.592Z,8.00
2022-10-01T09:59:14.612Z,7.50
2022-10-01T10:00:18.634Z,5.00
2022-10-01T10:01:22.490Z,7.00
2022-10-01T10:02:26.604Z,8.50
2022-10-01T10:03:31.228Z,9.50
2022-10-01T10:04:35.941Z,10.50
2022-10-01T10:05:40.557Z,7.25
2022-10-01T10:06:44.700Z,4.50
2022-10-01T10:07:49.060Z,3.25
2022-10-01T10:08:53.498Z,6.00
2022-10-01T10:09:57.564Z,9.50
2022-10-01T10:11:01.584Z,8.25
2022-10-01T10:12:05.876Z,6.75
2022-10-01T10:13:10.299Z,7.25
2022-10-01T10:14:14.395Z,7.00
2022-10-01T10:15:18.507Z,5.00
2022-10-01T10:16:23.064Z,5.00
2022-10-01T10:17:27.316Z,7.25
2022-10-01T10:18:31.527Z,10.00
2022-10-01T10:19:36.140Z,7.00
2022-10-01T10:20:40.234Z,0.50
2022-10-01T10:21:45.263Z,1.50
2022-10-01T10:22:49.470Z,1.00
2022-10-01T10:23:53.677Z,1.00
2022-10-01T10:24:57.986Z,0.25
2022-10-01T10:26:02.607Z,1.00
2022-10-01T10:27:06.505Z,1.00
2022-10-01T10:28:10.670Z,0.50
2022-10-01T10:29:14.609Z,0.75
2022-10-01T10:30:18.603Z,1.00
2022-10-01T10:31:24.002Z,1.50
2022-10-01T10:32:28.351Z,1.75
2022-10-01T10:33:32.781Z,2.00
2022-10-01T10:34:37.536Z,1.00
2022-10-01T10:35:41.893Z,1.00
2022-10-01T10:36:46.206Z,1.00
2022-10-01T10:37:50.508Z,0.00
2022-10-01T10:38:54.829Z,0.50
2022-10-01T10:39:59.044Z,0.75
2022-10-01T10:41:03.324Z,0.50
2022-10-01T10:42:07.234Z,1.00
2022-10-01T10:43:11.376Z,2.50
2022-10-01T10:44:15.437Z,3.00
2022-10-01T10:45:19.444Z,2.25
2022-10-01T10:46:23.593Z,1.50
2022-10-01T10:47:27.948Z,2.00
2022-10-01T10:48:32.212Z,1.00
2022-10-01T10:49:36.411Z,1.00
2022-10-01T10:50:40.580Z,2.50
2022-10-01T10:51:44.590Z,2.75
2022-10-01T10:52:48.869Z,3.00
2022-10-01T10:53:53.391Z,2.50
2022-10-01T10:54:58.009Z,2.00
2022-10-01T10:56:02.225Z,1.25
2022-10-01T10:57:06.109Z,1.50
2022-10-01T10:58:10.330Z,1.50
2022-10-01T10:59:14.833Z,2.00
2022-10-01T11:00:18.843Z,2.75
2022-10-01T11:01:22.984Z,3.00
2022-10-01T11:02:27.303Z,2.50
2022-10-01T11:03:31.444Z,1.50
2022-10-01T11:04:35.646Z,1.50
2022-10-01T11:05:39.854Z,3.50
2022-10-01T11:06:44.263Z,3.00
2022-10-01T11:07:48.164Z,3.00
2022-10-01T11:08:52.054Z,3.00
2022-10-01T11:09:55.975Z,2.00
2022-10-01T11:10:59.861Z,2.50
2022-10-01T11:12:03.863Z,3.25
2022-10-01T11:13:08.071Z,4.00
2022-10-01T11:14:12.274Z,3.50
2022-10-01T11:15:16.286Z,3.00
2022-10-01T11:16:20.239Z,2.75
2022-10-01T11:17:24.173Z,2.00
2022-10-01T11:18:28.175Z,2.00
2022-10-01T11:19:32.287Z,2.00
2022-10-01T11:20:36.590Z,2.00
2022-10-01T11:21:40.689Z,2.50
2022-10-01T11:22:44.925Z,2.00
2022-10-01T11:23:48.797Z,3.00
2022-10-01T11:24:52.898Z,2.50
2022-10-01T11:25:56.896Z,1.50
2022-10-01T11:27:01.020Z,2.50
2022-10-01T11:28:05.081Z,3.50
2022-10-01T11:29:08.973Z,4.00
2022-10-01T11:30:12.903Z,3.50
2022-10-01T11:31:17.060Z,2.50
2022-10-01T11:32:21.113Z,3.50
2022-10-01T11:33:25.123Z,4.00
2022-10-01T11:34:29.214Z,3.50
2022-10-01T11:35:33.327Z,4.00
2022-10-01T11:36:37.716Z,4.00
2022-10-01T11:37:41.829Z,4.00
2022-10-01T11:38:45.835Z,4.00
2022-10-01T11:39:50.038Z,6.50
2022-10-01T11:40:54.450Z,7.00
2022-10-01T11:41:58.654Z,5.50
2022-10-01T11:43:02.867Z,5.00
2022-10-01T11:44:06.965Z,6.25
2022-10-01T11:45:10.976Z,4.50
2022-10-01T11:46:15.466Z,4.25
2022-10-01T11:47:19.586Z,5.00
2022-10-01T11:48:23.378Z,5.00
2022-10-01T11:49:27.586Z,5.00
2022-10-01T11:50:32.234Z,4.50
2022-10-01T11:51:36.616Z,4.50
2022-10-01T11:52:40.714Z,4.50
2022-10-01T11:53:44.826Z,6.00
2022-10-01T11:54:51.222Z,5.00
2022-10-01T11:55:54.494Z,5.00
2022-10-01T11:56:58.774Z,5.00
2022-10-01T11:58:03.175Z,4.75
2022-10-01T11:59:07.303Z,4.00
2022-10-01T12:00:11.595Z,5.00
2022-10-01T12:01:16.006Z,7.00
2022-10-01T12:02:20.119Z,6.00
2022-10-01T12:03:25.435Z,5.50
2022-10-01T12:04:29.651Z,6.50
2022-10-01T12:05:34.012Z,7.25
2022-10-01T12:06:38.474Z,5.00
2022-10-01T12:07:42.567Z,4.75
2022-10-01T12:08:47.797Z,5.75
2022-10-01T12:09:51.697Z,6.00
2022-10-01T12:10:55.933Z,5.00
2022-10-01T12:12:00.224Z,4.75
2022-10-01T12:13:04.207Z,6.00
2022-10-01T12:14:08.213Z,6.50
2022-10-01T12:15:12.213Z,6.50
2022-10-01T12:16:16.351Z,6.75
2022-10-01T12:17:20.525Z,6.75
2022-10-01T12:18:24.848Z,5.50
2022-10-01T12:19:29.037Z,5.50
2022-10-01T12:20:33.257Z,4.75
2022-10-01T12:21:37.659Z,5.00
2022-10-01T12:22:42.278Z,5.00
2022-10-01T12:23:46.781Z,4.00
2022-10-01T12:24:51.083Z,4.75
2022-10-01T12:25:54.903Z,4.75
2022-10-01T12:26:59.300Z,3.50
2022-10-01T12:28:03.449Z,3.00
2022-10-01T12:29:07.261Z,2.50
2022-10-01T12:30:11.202Z,3.50
2022-10-01T12:31:15.222Z,4.00
2022-10-01T12:32:19.208Z,3.75
2022-10-01T12:33:23.419Z,4.50
2022-10-01T12:34:27.152Z,4.25
2022-10-01T12:35:31.095Z,4.00
2022-10-01T12:36:35.339Z,2.50
2022-10-01T12:37:39.378Z,3.00
2022-10-01T12:38:43.070Z,3.50
2022-10-01T12:39:47.212Z,3.50
2022-10-01T12:40:51.102Z,4.00
2022-10-01T12:41:55.040Z,3.00
2022-10-01T12:43:03.220Z,2.50
2022-10-01T12:44:03.922Z,3.50
2022-10-01T12:45:07.787Z,3.50
2022-10-01T12:46:12.173Z,2.75
2022-10-01T12:47:16.329Z,2.50
2022-10-01T12:48:20.444Z,2.50
2022-10-01T12:49:24.453Z,3.25
2022-10-01T12:50:28.462Z,3.00
2022-10-01T12:51:32.543Z,2.50
2022-10-01T12:52:36.326Z,2.00
2022-10-01T12:53:40.453Z,2.50
2022-10-01T12:54:44.654Z,2.00
2022-10-01T12:55:49.381Z,2.50
2022-10-01T12:56:53.604Z,3.00
2022-10-01T12:57:57.884Z,3.50
2022-10-01T12:59:01.990Z,3.00
2022-10-01T13:00:06.637Z,3.00
2022-10-01T13:01:10.679Z,4.00
2022-10-01T13:02:14.997Z,3.00
2022-10-01T13:03:19.018Z,3.00
2022-10-01T13:04:23.102Z,3.50
2022-10-01T13:05:27.531Z,4.00
2022-10-01T13:06:31.900Z,3.50
2022-10-01T13:07:36.356Z,2.00
2022-10-01T13:08:40.251Z,3.00
2022-10-01T13:09:48.640Z,2.50
2022-10-01T13:10:49.821Z,1.25
2022-10-01T13:11:53.788Z,3.50
2022-10-01T13:12:58.094Z,3.50
2022-10-01T13:14:02.203Z,2.50
2022-10-01T13:15:06.312Z,2.00
2022-10-01T13:16:10.478Z,1.25
2022-10-01T13:17:14.415Z,2.50
2022-10-01T13:18:18.314Z,2.50
2022-10-01T13:19:22.391Z,2.00
2022-10-01T13:20:26.614Z,3.50
2022-10-01T13:21:30.924Z,3.00
2022-10-01T13:22:35.444Z,2.00
2022-10-01T13:23:39.644Z,3.00
2022-10-01T13:24:43.954Z,2.25
2022-10-01T13:25:48.051Z,3.00
2022-10-01T13:26:52.160Z,2.50
2022-10-01T13:27:56.498Z,2.50
2022-10-01T13:29:00.672Z,2.00
2022-10-01T13:30:06.013Z,3.00
2022-10-01T13:31:10.168Z,3.50
2022-10-01T13:32:14.419Z,3.00
2022-10-01T13:33:18.416Z,3.00
2022-10-01T13:34:22.314Z,3.00
2022-10-01T13:35:27.410Z,1.75
2022-10-01T13:36:32.210Z,3.00
2022-10-01T13:37:36.470Z,2.00
2022-10-01T13:38:40.471Z,1.50
2022-10-01T13:39:44.475Z,1.50
2022-10-01T13:40:48.786Z,2.00
2022-10-01T13:41:52.888Z,2.75
2022-10-01T13:42:56.885Z,1.50
2022-10-01T13:44:00.884Z,2.00
2022-10-01T13:45:04.786Z,2.00
2022-10-01T13:46:08.739Z,2.50
2022-10-01T13:47:12.685Z,3.00
2022-10-01T13:48:16.584Z,3.00
2022-10-01T13:49:20.684Z,2.00
2022-10-01T13:50:24.685Z,3.00
2022-10-01T13:54:08.123Z,2.75
2022-10-01T13:55:11.931Z,2.50
2022-10-01T13:56:15.932Z,3.00
2022-10-01T13:57:19.929Z,3.75
2022-10-01T13:58:23.932Z,2.75
2022-10-01T13:59:27.855Z,2.00
2022-10-01T14:00:31.584Z,1.50
2022-10-01T14:01:35.570Z,1.50
2022-10-01T14:02:39.483Z,2.50
2022-10-01T14:03:43.416Z,2.50
2022-10-01T14:04:47.314Z,3.50
2022-10-01T14:05:51.313Z,3.50
2022-10-01T14:06:55.115Z,3.00
2022-10-01T14:07:58.909Z,2.50
2022-10-01T14:09:03.009Z,3.25
2022-10-01T14:10:06.911Z,3.25
2022-10-01T14:11:10.809Z,2.50
2022-10-01T14:12:14.705Z,4.00
2022-10-01T14:13:21.606Z,4.00
2022-10-01T14:14:23.696Z,3.50
2022-10-01T14:15:27.565Z,4.25
2022-10-01T14:16:31.797Z,5.00
2022-10-01T14:17:36.049Z,4.00